Other Surface Observations
Issued by NWS Missoula, MT

Home | Current Version | Previous Version | Text Only | Print | Product List | Glossary On
Versions: 1 2 3 4 5 6 7 8 9 10 11 12 13 14 15 16 17 18 19 20 21 22 23 24 25 26 27 28 29 30 31 32 33 34 35 36 37 38 39 40 41 42 43 44 45 46 47 48 49 50
912
SXUS55 KMSO 192023
OSOMSO
MONTANA AWOS SUMMARY
NATIONAL WEATHER SERVICE MISSOULA MT
123 PM MST SUN FEB 19 2017

Montana AWOS Reports

ROUNDUP     |KRPX 191955Z AUTO 22006KT 40SM 12/01 A2942 RMK AO1 T01220006
LAUREL      |K6S8 192015Z AUTO 24006KT 15SM 13/M01 A2949 RMK AO1 T01281010




USA.gov is the U.S. government's official web portal to all federal, state and local government web resources and services.